METAR Formatted Surface Weather Observation
Issued by NWS

Home | Current Version | Previous Version | Text Only | Print | Product List | Glossary On
Versions: 1 2 3 4 5 6 7 8 9 10 11 12 13 14 15 16 17 18 19 20 21 22 23 24 25 26 27 28 29 30 31 32 33 34 35 36 37 38 39 40 41 42 43 44 45 46 47 48 49 50
000
SAUS41 KAKQ 031754
MTRNUI
METAR KNUI 031753Z AUTO 12004KT 10SM BKN090 BKN100 25/09 A3012 RMK
AO2 SLP198 T02500094 10250 20156 58001



USA.gov is the U.S. government's official web portal to all federal, state and local government web resources and services.